Latest Weather Observations for Renmark Airport

IDS60801

Issued at 4:31 pm CST Tuesday 23 May 2017 (issued every 30 minutes, with the page automatically refreshed every 10 minutes)

About weather observations | Map of weather stations | Latest weather observations for SA | Other Formats
Station Details ID: 024048 Name: RENMARK AERO Lat: -34.20 Lon: 140.68 Height: 31.5 m
Data from the previous 72 hours. | See also: Recent months at Renmark Airport
Date/Time
CST
Temp
°C
App
Temp
°C
Dew
Point
°C
Rel
Hum
%
Delta-T
°C
Wind Press
QNH
hPa
Press
MSL
hPa
Rain since
9am
mm
Dir  Spd
km/h
Gust
km/h
Spd
kts
Gust
kts
23/04:30pm 18.5 13.7 7.3 48 5.7 W 22 30 12 16 1015.2 1015.2 0.0
23/04:00pm 19.3 12.8 6.4 43 6.4 W 30 43 16 23 1015.0 1015.0 0.0
23/03:30pm 20.2 15.9 6.9 42 6.7 W 19 33 10 18 1014.8 1014.8 0.0
23/03:00pm 20.5 17.2 9.7 50 5.8 W 17 24 9 13 1014.7 1014.7 0.0
23/02:30pm 20.3 17.7 9.5 50 5.8 W 13 22 7 12 1014.7 1014.7 0.0
23/02:00pm 20.1 17.4 9.1 49 5.8 W 13 20 7 11 1014.8 1014.8 0.0
23/01:30pm 19.0 16.8 10.8 59 4.4 W 13 17 7 9 1015.2 1015.2 0.0
23/01:00pm 20.2 18.0 10.9 55 5.1 WNW 13 19 7 10 1015.6 1015.5 0.0
23/12:30pm 19.4 17.7 9.9 54 5.1 NW 9 19 5 10 1016.1 1016.1 0.0
23/12:00pm 19.3 18.0 11.1 59 4.5 NW 9 15 5 8 1016.6 1016.6 0.0
23/11:30am 19.1 17.8 11.4 61 4.2 N 9 13 5 7 1017.1 1017.1 0.0
23/11:00am 18.5 17.7 11.6 64 3.8 NNW 7 13 4 7 1017.4 1017.4 0.0
23/10:30am 17.9 17.0 11.2 65 3.6 WNW 7 11 4 6 1017.8 1017.8 0.0
23/10:00am 17.6 17.6 12.3 71 2.9 N 4 9 2 5 1017.9 1017.9 0.0
23/09:30am 16.9 16.7 13.0 78 2.2 NE 6 9 3 5 1018.0 1018.0 0.0
23/09:00am 15.7 17.6 15.7 100 0.0 CALM 0 0 0 0 1018.1 1018.1 4.6
23/08:30am 13.5 14.6 13.5 100 0.0 CALM 0 0 0 0 1018.1 1018.1 4.6
23/08:00am 12.0 11.5 12.0 100 0.0 W 6 7 3 4 1018.2 1018.2 4.6
23/07:30am 11.5 10.8 11.5 100 0.0 WSW 6 9 3 5 1017.9 1017.9 4.6
23/07:00am 10.6 9.7 10.6 100 0.0 W 6 7 3 4 1018.0 1018.0 4.6
23/06:30am 10.6 10.8 10.6 100 0.0 CALM 0 0 0 0 1017.6 1017.6 4.6
23/06:00am 10.8 9.4 10.8 100 0.0 W 9 11 5 6 1017.5 1017.5 4.6
23/05:30am 10.8 11.1 10.8 100 0.0 CALM 0 0 0 0 1017.4 1017.4 4.6
23/05:00am 10.7 10.9 10.7 100 0.0 CALM 0 0 0 0 1016.9 1016.9 4.6
23/04:30am 11.6 12.1 11.6 100 0.0 CALM 0 4 0 2 1016.5 1016.5 4.6
23/04:00am 12.6 13.4 12.6 100 0.0 CALM 0 0 0 0 1016.4 1016.4 4.6
23/03:30am 13.6 13.4 13.6 100 0.0 ENE 7 9 4 5 1016.5 1016.5 4.6
23/03:00am 14.3 14.0 14.3 100 0.0 ENE 9 13 5 7 1017.0 1017.0 4.2
23/02:58am 14.3 13.6 14.3 100 0.0 ENE 11 13 6 7 1016.9 1016.9 4.2
23/02:45am 14.5 13.9 14.5 100 0.0 ENE 11 20 6 11 1016.8 1016.8 4.0
23/02:30am 14.5 13.5 14.5 100 0.0 NE 13 19 7 10 1016.8 1016.8 1.0
23/02:00am 14.4 15.1 14.4 100 0.0 SSW 4 11 2 6 1016.7 1016.7 1.0
23/01:30am 14.7 14.9 14.7 100 0.0 W 7 9 4 5 1016.5 1016.5 0.8
23/01:00am 15.2 15.4 14.1 93 0.6 WNW 6 9 3 5 1016.4 1016.4 0.0
23/12:30am 15.9 14.3 12.8 82 1.7 NW 13 15 7 8 1016.5 1016.5 0.0
23/12:00am 16.1 15.0 11.9 76 2.3 W 9 11 5 6 1016.1 1016.1 0.0
 
Date/Time
CST
Temp
°C
App
Temp
°C
Dew
Point
°C
Rel
Hum
%
Delta-T
°C
Wind Press
QNH
hPa
Press
MSL
hPa
Rain since
9am
mm
Dir  Spd
km/h
Gust
km/h
Spd
kts
Gust
kts
22/11:30pm 16.8 14.0 11.5 71 2.9 NW 17 24 9 13 1016.5 1016.5 0.0
22/11:00pm 15.3 14.8 11.9 80 1.8 NNW 6 11 3 6 1016.6 1016.6 0.0
22/10:30pm 15.3 14.8 11.9 80 1.8 NE 6 9 3 5 1016.7 1016.7 0.0
22/10:00pm 16.3 15.1 10.2 67 3.2 NW 7 9 4 5 1016.4 1016.4 0.0
22/09:30pm 17.2 14.4 9.9 62 3.8 WNW 15 17 8 9 1017.0 1017.0 0.0
22/09:00pm 18.4 15.3 8.7 53 5.0 WNW 15 20 8 11 1016.7 1016.7 0.0
22/08:30pm 19.0 16.6 7.1 46 6.0 NNW 9 13 5 7 1016.2 1016.2 0.0
22/08:00pm 19.4 16.6 6.8 44 6.3 NNW 11 17 6 9 1015.9 1015.8 0.0
22/07:30pm 17.9 15.6 7.3 50 5.3 WNW 9 11 5 6 1015.6 1015.5 0.0
22/07:00pm 18.6 16.6 7.1 47 5.8 NE 7 13 4 7 1014.9 1014.9 0.0
22/06:30pm 18.7 15.9 6.9 46 5.9 N 11 13 6 7 1014.6 1014.6 0.0
22/06:00pm 19.9 16.6 6.3 41 6.8 NNW 13 17 7 9 1014.5 1014.5 0.0
22/05:30pm 19.8 16.0 5.8 40 6.9 N 15 17 8 9 1014.5 1014.5 0.0
22/05:00pm 21.3 17.4 5.2 35 8.0 N 15 20 8 11 1014.2 1014.2 0.0
22/04:30pm 22.0 17.3 5.0 33 8.4 NNE 19 22 10 12 1014.0 1014.0 0.0
22/04:00pm 23.1 18.0 4.1 29 9.3 N 20 26 11 14 1014.2 1014.2 0.0
22/03:30pm 24.6 18.8 4.4 27 10.1 N 24 39 13 21 1014.2 1014.2 0.0
22/03:00pm 23.7 17.5 4.1 28 9.6 N 26 32 14 17 1014.4 1014.4 0.0
22/02:30pm 23.7 17.9 4.6 29 9.5 N 24 39 13 21 1014.8 1014.8 0.0
22/02:00pm 24.3 17.8 4.6 28 9.8 N 28 39 15 21 1015.2 1015.2 0.0
22/01:30pm 25.0 19.7 6.7 31 9.5 N 24 32 13 17 1015.3 1015.3 0.0
22/01:00pm 23.5 17.2 5.9 32 8.9 N 28 41 15 22 1015.6 1015.5 0.0
22/12:30pm 23.4 16.4 6.2 33 8.8 N 32 44 17 24 1016.1 1016.1 0.0
22/12:00pm 22.8 15.6 5.7 33 8.6 N 33 44 18 24 1016.7 1016.7 0.0
22/11:30am 22.5 14.9 5.9 34 8.4 N 35 48 19 26 1017.4 1017.4 0.0
22/11:00am 21.9 13.5 5.8 35 8.1 N 39 57 21 31 1017.6 1017.6 0.0
22/10:30am 21.6 14.0 5.9 36 7.9 N 35 57 19 31 1017.5 1017.5 0.0
22/10:17am 21.5 14.9 6.2 37 7.7 N 30 52 16 28 1017.6 1017.6 0.0
22/10:00am 20.8 14.0 6.7 40 7.2 N 32 44 17 24 1017.6 1017.6 0.0
22/09:30am 18.9 13.6 7.0 46 6.0 N 24 33 13 18 1017.9 1017.9 0.0
22/09:00am 17.2 11.3 7.3 52 5.0 N 28 37 15 20 1018.1 1018.1 0.0
22/08:30am 15.8 10.9 7.1 56 4.3 N 22 30 12 16 1018.4 1018.4 0.0
22/08:00am 13.8 9.5 7.1 64 3.3 N 19 22 10 12 1018.6 1018.6 0.0
22/07:30am 12.7 9.6 7.2 69 2.7 NNE 13 17 7 9 1018.6 1018.6 0.0
22/07:00am 11.2 8.7 6.7 74 2.1 NNE 9 13 5 7 1018.5 1018.5 0.0
22/06:30am 12.0 8.0 6.7 70 2.5 N 17 22 9 12 1018.1 1018.1 0.0
22/06:00am 10.4 7.4 7.5 82 1.4 NNE 13 17 7 9 1017.9 1017.9 0.0
22/05:30am 9.0 7.0 7.0 87 0.9 NE 7 11 4 6 1017.9 1017.9 0.0
22/05:00am 8.8 7.7 6.8 87 0.9 ENE 2 7 1 4 1018.0 1018.0 0.0
22/04:30am 10.0 6.9 7.1 82 1.4 NE 13 15 7 8 1017.7 1017.7 0.0
22/04:00am 9.9 7.8 6.6 80 1.5 NE 7 11 4 6 1017.9 1017.9 0.0
22/03:30am 10.7 8.3 6.8 77 1.8 N 9 13 5 7 1018.2 1018.2 0.0
22/03:00am 11.1 8.6 6.6 74 2.1 NNE 9 17 5 9 1018.2 1018.2 0.0
22/02:30am 11.3 9.2 6.8 74 2.1 NNE 7 15 4 8 1018.2 1018.2 0.0
22/02:00am 10.9 7.4 7.4 79 1.7 NNE 15 19 8 10 1017.9 1017.9 0.0
22/01:30am 10.6 7.4 6.7 77 1.8 NE 13 15 7 8 1018.2 1018.2 0.0
22/01:00am 11.3 8.5 7.0 75 2.1 NNE 11 13 6 7 1018.3 1018.3 0.0
22/12:30am 11.4 8.3 7.1 75 2.1 NNE 13 15 7 8 1018.4 1018.4 0.0
22/12:00am 11.5 8.5 7.6 77 1.9 NNE 13 15 7 8 1018.7 1018.7 0.0
 
Date/Time
CST
Temp
°C
App
Temp
°C
Dew
Point
°C
Rel
Hum
%
Delta-T
°C
Wind Press
QNH
hPa
Press
MSL
hPa
Rain since
9am
mm
Dir  Spd
km/h
Gust
km/h
Spd
kts
Gust
kts
21/11:30pm 11.8 8.7 7.3 74 2.2 NNE 13 15 7 8 1018.8 1018.8 0.0
21/11:00pm 11.8 8.4 7.7 76 2.0 NNE 15 17 8 9 1018.9 1018.9 0.0
21/10:30pm 12.8 9.4 7.7 71 2.5 NNE 15 17 8 9 1019.0 1019.0 0.0
21/10:00pm 12.6 9.7 8.1 74 2.2 NNE 13 15 7 8 1019.1 1019.1 0.0
21/09:30pm 12.3 9.4 8.0 75 2.1 NNE 13 15 7 8 1019.0 1019.0 0.0
21/09:00pm 12.5 9.6 8.0 74 2.2 NNE 13 15 7 8 1018.9 1018.9 0.0
21/08:30pm 12.8 9.9 8.3 74 2.2 NNE 13 15 7 8 1018.8 1018.8 0.0
21/08:00pm 13.3 10.3 7.7 69 2.8 NE 13 13 7 7 1018.6 1018.6 0.0
21/07:30pm 14.4 11.7 7.5 63 3.4 NE 11 13 6 7 1018.4 1018.4 0.0
21/07:00pm 15.0 12.3 7.5 61 3.7 NE 11 13 6 7 1018.2 1018.2 0.0
21/06:30pm 15.7 13.4 7.5 58 4.1 NE 9 11 5 6 1017.8 1017.8 0.0
21/06:00pm 17.3 14.5 7.1 51 5.1 NE 11 11 6 6 1017.6 1017.6 0.0
21/05:30pm 18.2 16.2 7.3 49 5.5 NE 7 9 4 5 1017.5 1017.5 0.0
21/05:00pm 19.4 16.8 7.8 47 6.0 NNE 11 13 6 7 1017.3 1017.3 0.0
21/04:30pm 21.5 18.8 7.3 40 7.3 NNE 11 13 6 7 1017.3 1017.3 0.0
21/04:00pm 22.4 18.3 6.2 35 8.2 N 17 24 9 13 1017.3 1017.3 0.0
21/03:30pm 22.6 18.5 6.4 35 8.3 N 17 20 9 11 1017.1 1017.1 0.0
21/03:00pm 22.7 18.2 6.0 34 8.4 N 19 26 10 14 1017.0 1017.0 0.0
21/02:30pm 22.6 18.5 6.0 34 8.4 N 17 24 9 13 1017.1 1017.1 0.0
21/02:00pm 22.5 17.9 6.7 36 8.1 N 20 28 11 15 1017.2 1017.2 0.0
21/01:30pm 22.5 18.1 6.7 36 8.1 N 19 28 10 15 1017.4 1017.4 0.0
21/01:00pm 22.6 18.8 7.6 38 7.8 NNE 17 28 9 15 1017.8 1017.8 0.0
21/12:30pm 21.7 17.8 7.2 39 7.5 NNE 17 24 9 13 1018.1 1018.1 0.0
21/12:00pm 21.6 18.3 8.1 42 7.1 NNE 15 20 8 11 1018.5 1018.5 0.0
21/11:30am 21.0 17.5 8.6 45 6.5 N 17 22 9 12 1019.0 1019.0 0.0
21/11:00am 19.9 16.2 7.9 46 6.2 N 17 22 9 12 1019.4 1019.4 0.0
21/10:30am 19.0 15.8 8.6 51 5.4 NNE 15 19 8 10 1019.7 1019.7 0.0
21/10:00am 17.7 15.9 9.3 58 4.4 N 9 15 5 8 1019.8 1019.8 0.0
21/09:30am 15.4 13.2 9.5 68 3.0 NNE 11 15 6 8 1019.9 1019.9 0.0
21/09:00am 13.8 11.6 9.5 75 2.2 N 11 11 6 6 1019.8 1019.8 0.2
21/08:30am 12.5 11.7 11.1 91 0.7 N 6 7 3 4 1019.5 1019.5 0.2
21/08:00am 8.4 6.9 8.4 100 0.0 N 6 7 3 4 1019.2 1019.2 0.2
21/07:30am 5.3 3.1 5.3 100 0.0 N 6 7 3 4 1018.9 1018.9 0.2
21/07:00am 4.5 2.0 4.5 100 0.0 N 7 7 4 4 1018.5 1018.5 0.2
21/06:30am 4.5 2.1 4.5 100 0.0 N 6 7 3 4 1018.3 1018.3 0.2
21/06:00am 4.7 2.2 4.7 100 0.0 N 7 9 4 5 1018.1 1018.1 0.2
21/05:30am 7.1 4.7 7.1 100 0.0 N 9 9 5 5 1017.6 1017.6 0.2
21/05:00am 5.4 4.4 5.4 100 0.0 CALM 0 0 0 0 1017.5 1017.5 0.2
21/04:30am 5.3 4.2 5.3 100 0.0 CALM 0 0 0 0 1017.4 1017.4 0.2
21/04:00am 5.7 4.3 5.7 100 0.0 NNE 2 6 1 3 1017.2 1017.2 0.2
21/03:30am 5.9 3.8 5.9 100 0.0 NNE 6 7 3 4 1017.2 1017.2 0.2
21/03:00am 6.0 5.1 6.0 100 0.0 CALM 0 0 0 0 1017.2 1017.2 0.2
21/02:30am 6.0 5.1 6.0 100 0.0 CALM 0 0 0 0 1017.2 1017.2 0.2
21/02:00am 6.5 5.7 6.5 100 0.0 CALM 0 0 0 0 1017.5 1017.5 0.2
21/01:30am 6.6 5.8 6.6 100 0.0 CALM 0 0 0 0 1017.5 1017.5 0.2
21/01:00am 7.1 6.4 7.1 100 0.0 CALM 0 0 0 0 1017.6 1017.6 0.2
21/12:30am 7.2 6.6 7.2 100 0.0 CALM 0 0 0 0 1017.7 1017.7 0.2
21/12:00am 7.2 6.6 7.2 100 0.0 CALM 0 0 0 0 1017.7 1017.7 0.2
 
Date/Time
CST
Temp
°C
App
Temp
°C
Dew
Point
°C
Rel
Hum
%
Delta-T
°C
Wind Press
QNH
hPa
Press
MSL
hPa
Rain since
9am
mm
Dir  Spd
km/h
Gust
km/h
Spd
kts
Gust
kts
20/11:30pm 7.8 7.3 7.8 100 0.0 CALM 0 0 0 0 1017.6 1017.6 0.2
20/11:00pm 7.9 7.4 7.9 100 0.0 CALM 0 0 0 0 1017.6 1017.6 0.2
20/10:30pm 8.3 7.9 8.3 100 0.0 CALM 0 0 0 0 1017.6 1017.6 0.2
20/10:00pm 8.5 8.2 8.5 100 0.0 CALM 0 0 0 0 1017.5 1017.5 0.2
20/09:30pm 8.9 8.7 8.9 100 0.0 CALM 0 0 0 0 1017.2 1017.2 0.2
20/09:00pm 9.4 9.3 9.4 100 0.0 CALM 0 0 0 0 1017.1 1017.1 0.2
20/08:30pm 9.9 9.9 9.9 100 0.0 CALM 0 0 0 0 1016.9 1016.9 0.2
20/08:00pm 10.3 10.4 10.3 100 0.0 CALM 0 0 0 0 1016.8 1016.8 0.2
20/07:30pm 10.8 10.9 10.0 95 0.4 CALM 0 0 0 0 1016.6 1016.6 0.2
20/07:00pm 11.6 11.6 9.9 89 0.9 CALM 0 0 0 0 1016.4 1016.4 0.2
20/06:30pm 12.8 12.7 9.6 81 1.6 CALM 0 0 0 0 1016.0 1016.0 0.2
20/06:00pm 14.5 14.2 8.7 68 2.9 CALM 0 2 0 1 1015.7 1015.6 0.2
20/05:30pm 15.4 13.8 8.9 65 3.3 NNE 7 9 4 5 1015.3 1015.3 0.2
20/05:00pm 18.3 16.6 8.3 52 5.1 N 7 9 4 5 1015.1 1015.1 0.2

Other Formats:

Comma delimited format used in spreadsheet applications
http://www.bom.gov.au/fwo/IDS60801/IDS60801.95687.axf

JavaScript Object Notation format (JSON) in row-major order
http://www.bom.gov.au/fwo/IDS60801/IDS60801.95687.json